createdAt,value
2022-12-26T00:04:50.707Z,26.904296875
2022-12-26T00:14:41.858Z,28.7109375
2022-12-26T00:24:41.738Z,26.708984375
2022-12-26T00:34:41.729Z,27.9052734375
2022-12-26T00:44:41.553Z,28.1005859375
2022-12-26T00:54:41.523Z,29.8095703125
2022-12-26T01:04:41.454Z,30.2001953125
2022-12-26T01:14:41.392Z,30.3955078125
2022-12-26T01:24:41.261Z,30.5908203125
2022-12-26T01:34:41.257Z,30.3955078125
2022-12-26T01:44:41.161Z,30.6884765625
2022-12-26T01:54:43.087Z,30.908203125
2022-12-26T02:04:41.009Z,30.6884765625
2022-12-26T02:14:40.933Z,30.3955078125
2022-12-26T02:24:40.893Z,31.103515625
2022-12-26T02:34:40.824Z,29.9072265625
2022-12-26T02:44:40.773Z,29.4921875
2022-12-26T02:54:40.672Z,29.19921875
2022-12-26T03:04:40.603Z,28.0029296875
2022-12-26T03:14:40.528Z,26.904296875
2022-12-26T03:24:40.454Z,26.2939453125
2022-12-26T03:34:40.487Z,25.09765625
2022-12-26T03:44:40.280Z,25
2022-12-26T03:54:40.207Z,24.40185546875
2022-12-26T04:04:40.132Z,24.30419921875
2022-12-26T04:14:40.098Z,23.30322265625
2022-12-26T04:24:39.995Z,23.20556640625
2022-12-26T04:34:39.943Z,23.49853515625
2022-12-26T04:44:39.845Z,23.095703125
2022-12-26T04:54:39.824Z,22.30224609375
2022-12-26T05:04:39.784Z,21.8994140625
2022-12-26T05:14:39.665Z,21.8017578125
2022-12-26T05:24:39.547Z,21.8017578125
2022-12-26T05:34:39.475Z,21.59423828125
2022-12-26T05:44:39.408Z,21.39892578125
2022-12-26T05:54:39.373Z,21.59423828125
2022-12-26T06:04:39.253Z,21.49658203125
2022-12-26T06:14:39.287Z,21.20361328125
2022-12-26T06:24:39.164Z,21.39892578125
2022-12-26T06:34:39.061Z,21.20361328125
2022-12-26T06:44:38.974Z,21.10595703125
2022-12-26T06:54:38.882Z,21.20361328125
2022-12-26T07:04:38.830Z,20.8984375
2022-12-26T07:14:38.736Z,20.60546875
2022-12-26T07:24:38.672Z,20.60546875
2022-12-26T07:34:38.604Z,20.30029296875
2022-12-26T07:44:38.573Z,20.10498046875
2022-12-26T07:54:38.442Z,19.9951171875
2022-12-26T08:04:38.371Z,19.7021484375
2022-12-26T08:14:38.325Z,19.29931640625
2022-12-26T08:24:38.220Z,18.896484375
2022-12-26T08:34:38.144Z,18.798828125
2022-12-26T08:44:38.063Z,18.39599609375
2022-12-26T08:54:38.031Z,18.20068359375
2022-12-26T09:04:37.937Z,18.00537109375
2022-12-26T09:14:37.869Z,17.7001953125
2022-12-26T09:24:37.903Z,17.7001953125
2022-12-26T09:34:37.798Z,17.5048828125
2022-12-26T09:44:37.693Z,17.19970703125
2022-12-26T09:54:37.599Z,16.89453125
2022-12-26T10:04:37.571Z,16.796875
2022-12-26T10:14:37.468Z,16.50390625
2022-12-26T10:24:37.392Z,16.29638671875
2022-12-26T10:34:37.308Z,16.10107421875
2022-12-26T10:44:37.340Z,16.00341796875
2022-12-26T10:54:37.279Z,15.90576171875
2022-12-26T11:05:10.442Z,15.7958984375
2022-12-26T11:14:36.994Z,15.7958984375
2022-12-26T11:24:36.950Z,15.90576171875
2022-12-26T11:34:36.860Z,15.5029296875
2022-12-26T11:44:36.887Z,15.4052734375
2022-12-26T11:54:36.745Z,15.29541015625
2022-12-26T12:04:37.088Z,15.10009765625
2022-12-26T12:14:36.771Z,15.00244140625
2022-12-26T12:24:36.491Z,14.794921875
2022-12-26T12:34:36.453Z,14.697265625
2022-12-26T12:44:36.446Z,14.599609375
2022-12-26T12:54:36.299Z,14.599609375
2022-12-26T13:04:36.199Z,14.501953125
2022-12-26T13:14:36.168Z,14.29443359375
2022-12-26T13:24:36.078Z,14.404296875
2022-12-26T13:34:36.032Z,14.29443359375
2022-12-26T13:44:35.952Z,14.19677734375
2022-12-26T13:54:35.872Z,14.19677734375
2022-12-26T14:04:35.833Z,14.19677734375
2022-12-26T14:14:35.817Z,14.09912109375
2022-12-26T14:24:35.662Z,14.09912109375
2022-12-26T14:34:35.661Z,14.09912109375
2022-12-26T14:44:35.538Z,13.90380859375
2022-12-26T14:54:35.466Z,13.7939453125
2022-12-26T15:04:35.378Z,13.6962890625
2022-12-26T15:14:35.281Z,13.5986328125
2022-12-26T15:25:17.085Z,13.6962890625
2022-12-26T15:34:35.135Z,13.5986328125
2022-12-26T15:44:35.086Z,13.5009765625
2022-12-26T15:54:35.021Z,13.5009765625
2022-12-26T16:04:34.910Z,13.4033203125
2022-12-26T16:14:34.851Z,13.3056640625
2022-12-26T16:24:34.771Z,13.3056640625
2022-12-26T16:34:34.698Z,13.19580078125
2022-12-26T16:44:34.751Z,13.09814453125
2022-12-26T16:54:34.551Z,13.09814453125
2022-12-26T17:04:34.488Z,13.09814453125
2022-12-26T17:14:34.472Z,13.19580078125
2022-12-26T17:24:34.363Z,13.19580078125
2022-12-26T17:34:34.312Z,13.19580078125
2022-12-26T17:44:34.231Z,13.3056640625
2022-12-26T17:54:34.255Z,13.3056640625
2022-12-26T18:04:34.059Z,13.3056640625
2022-12-26T18:14:33.976Z,13.4033203125
2022-12-26T18:24:33.909Z,13.5009765625
2022-12-26T18:34:33.938Z,13.5009765625
2022-12-26T18:44:33.795Z,13.5986328125
2022-12-26T18:54:33.729Z,13.5986328125
2022-12-26T19:04:33.635Z,13.5986328125
2022-12-26T19:14:33.552Z,13.5986328125
2022-12-26T19:24:33.503Z,13.6962890625
2022-12-26T19:34:33.427Z,13.7939453125
2022-12-26T19:44:33.354Z,13.90380859375
2022-12-26T19:54:33.332Z,14.09912109375
2022-12-26T20:04:33.316Z,14.19677734375
2022-12-26T20:14:33.149Z,14.599609375
2022-12-26T20:24:33.092Z,15.4052734375
2022-12-26T20:34:32.980Z,16.29638671875
2022-12-26T20:44:32.902Z,17.8955078125
2022-12-26T20:54:32.867Z,18.798828125
2022-12-26T21:04:32.782Z,19.39697265625
2022-12-26T21:14:32.806Z,19.8974609375
2022-12-26T21:24:32.647Z,20.703125
2022-12-26T21:34:32.536Z,21.20361328125
2022-12-26T21:44:32.504Z,21.39892578125
2022-12-26T21:54:32.430Z,23.20556640625
2022-12-26T22:04:32.355Z,23.8037109375
2022-12-26T22:14:32.274Z,24.0966796875
2022-12-26T22:24:32.202Z,25.09765625
2022-12-26T22:34:32.252Z,25.8056640625
2022-12-26T22:44:32.057Z,26.708984375
2022-12-26T22:54:31.959Z,26.4892578125
2022-12-26T23:04:31.896Z,27.001953125
2022-12-26T23:14:31.815Z,26.611328125
2022-12-26T23:24:31.754Z,27.8076171875
2022-12-26T23:34:31.682Z,27.9052734375
2022-12-26T23:44:31.613Z,28.3935546875
2022-12-26T23:54:31.549Z,27.9052734375
